sensor_id;sensor_type;location;lat;lon;timestamp;P1;durP1;ratioP1;P2;durP2;ratioP2
34200;SDS011;20469;55.638;37.670;2022-11-14T00:01:18;0.32;;;0.30;;
34200;SDS011;20469;55.638;37.670;2022-11-14T00:03:48;1.35;;;0.50;;
34200;SDS011;20469;55.638;37.670;2022-11-14T00:06:16;1.75;;;0.60;;
34200;SDS011;20469;55.638;37.670;2022-11-14T00:08:44;1.45;;;0.40;;
34200;SDS011;20469;55.638;37.670;2022-11-14T00:11:12;0.98;;;0.50;;
34200;SDS011;20469;55.638;37.670;2022-11-14T00:13:39;1.45;;;0.40;;
34200;SDS011;20469;55.638;37.670;2022-11-14T00:16:07;0.93;;;0.50;;
34200;SDS011;20469;55.638;37.670;2022-11-14T00:18:35;1.27;;;0.40;;
34200;SDS011;20469;55.638;37.670;2022-11-14T00:21:03;1.17;;;0.50;;
34200;SDS011;20469;55.638;37.670;2022-11-14T00:23:30;0.50;;;0.50;;
34200;SDS011;20469;55.638;37.670;2022-11-14T00:25:58;0.75;;;0.50;;
34200;SDS011;20469;55.638;37.670;2022-11-14T00:28:26;1.88;;;0.68;;
34200;SDS011;20469;55.638;37.670;2022-11-14T00:30:54;1.25;;;0.60;;
34200;SDS011;20469;55.638;37.670;2022-11-14T00:33:22;1.70;;;0.63;;
34200;SDS011;20469;55.638;37.670;2022-11-14T00:35:51;0.98;;;0.55;;
34200;SDS011;20469;55.638;37.670;2022-11-14T00:38:20;1.02;;;0.85;;
34200;SDS011;20469;55.638;37.670;2022-11-14T00:40:48;0.60;;;0.50;;
34200;SDS011;20469;55.638;37.670;2022-11-14T00:43:15;1.20;;;0.50;;
34200;SDS011;20469;55.638;37.670;2022-11-14T00:45:43;1.08;;;0.60;;
34200;SDS011;20469;55.638;37.670;2022-11-14T00:48:12;0.82;;;0.60;;
34200;SDS011;20469;55.638;37.670;2022-11-14T00:50:40;2.92;;;0.52;;
34200;SDS011;20469;55.638;37.670;2022-11-14T00:53:08;1.30;;;0.60;;
34200;SDS011;20469;55.638;37.670;2022-11-14T00:55:35;0.60;;;0.50;;
34200;SDS011;20469;55.638;37.670;2022-11-14T00:58:03;0.80;;;0.57;;
34200;SDS011;20469;55.638;37.670;2022-11-14T01:00:31;0.88;;;0.50;;
34200;SDS011;20469;55.638;37.670;2022-11-14T01:02:59;2.05;;;0.75;;
34200;SDS011;20469;55.638;37.670;2022-11-14T01:05:27;2.10;;;0.70;;
34200;SDS011;20469;55.638;37.670;2022-11-14T01:07:54;1.33;;;0.57;;
34200;SDS011;20469;55.638;37.670;2022-11-14T01:10:22;2.58;;;0.70;;
34200;SDS011;20469;55.638;37.670;2022-11-14T01:12:50;0.77;;;0.40;;
34200;SDS011;20469;55.638;37.670;2022-11-14T01:15:18;1.35;;;0.60;;
34200;SDS011;20469;55.638;37.670;2022-11-14T01:17:45;2.25;;;0.60;;
34200;SDS011;20469;55.638;37.670;2022-11-14T01:20:14;0.95;;;0.50;;
34200;SDS011;20469;55.638;37.670;2022-11-14T01:22:42;0.70;;;0.43;;
34200;SDS011;20469;55.638;37.670;2022-11-14T01:25:09;0.65;;;0.40;;
34200;SDS011;20469;55.638;37.670;2022-11-14T01:27:40;1.25;;;0.50;;
34200;SDS011;20469;55.638;37.670;2022-11-14T01:30:08;0.85;;;0.40;;
34200;SDS011;20469;55.638;37.670;2022-11-14T01:32:35;1.30;;;0.57;;
34200;SDS011;20469;55.638;37.670;2022-11-14T01:35:03;0.35;;;0.35;;
34200;SDS011;20469;55.638;37.670;2022-11-14T01:37:31;1.02;;;0.60;;
34200;SDS011;20469;55.638;37.670;2022-11-14T01:39:59;0.55;;;0.50;;
34200;SDS011;20469;55.638;37.670;2022-11-14T01:42:28;1.55;;;0.47;;
34200;SDS011;20469;55.638;37.670;2022-11-14T01:44:56;0.50;;;0.40;;
34200;SDS011;20469;55.638;37.670;2022-11-14T01:47:26;1.60;;;0.50;;
34200;SDS011;20469;55.638;37.670;2022-11-14T01:49:57;0.45;;;0.40;;
34200;SDS011;20469;55.638;37.670;2022-11-14T01:52:27;0.30;;;0.30;;
34200;SDS011;20469;55.638;37.670;2022-11-14T01:55:00;0.45;;;0.40;;
34200;SDS011;20469;55.638;37.670;2022-11-14T01:57:32;1.00;;;0.30;;
34200;SDS011;20469;55.638;37.670;2022-11-14T02:02:33;1.65;;;0.35;;
34200;SDS011;20469;55.638;37.670;2022-11-14T02:05:03;0.50;;;0.50;;
34200;SDS011;20469;55.638;37.670;2022-11-14T02:07:34;2.17;;;0.90;;
34200;SDS011;20469;55.638;37.670;2022-11-14T02:10:07;1.35;;;0.47;;
34200;SDS011;20469;55.638;37.670;2022-11-14T02:12:38;1.00;;;0.47;;
34200;SDS011;20469;55.638;37.670;2022-11-14T02:15:06;1.65;;;0.45;;
34200;SDS011;20469;55.638;37.670;2022-11-14T02:17:34;0.47;;;0.25;;
34200;SDS011;20469;55.638;37.670;2022-11-14T02:22:54;0.73;;;0.50;;
34200;SDS011;20469;55.638;37.670;2022-11-14T02:25:22;0.43;;;0.40;;
34200;SDS011;20469;55.638;37.670;2022-11-14T02:27:50;1.77;;;0.45;;
34200;SDS011;20469;55.638;37.670;2022-11-14T02:30:19;0.70;;;0.40;;
34200;SDS011;20469;55.638;37.670;2022-11-14T02:32:48;3.10;;;0.50;;
34200;SDS011;20469;55.638;37.670;2022-11-14T02:35:36;1.45;;;0.50;;
34200;SDS011;20469;55.638;37.670;2022-11-14T02:38:04;2.00;;;1.10;;
34200;SDS011;20469;55.638;37.670;2022-11-14T02:40:32;1.30;;;0.60;;
34200;SDS011;20469;55.638;37.670;2022-11-14T02:42:59;2.15;;;0.60;;
34200;SDS011;20469;55.638;37.670;2022-11-14T02:45:27;2.63;;;0.70;;
34200;SDS011;20469;55.638;37.670;2022-11-14T02:47:55;1.92;;;0.60;;
34200;SDS011;20469;55.638;37.670;2022-11-14T02:50:23;0.98;;;0.60;;
34200;SDS011;20469;55.638;37.670;2022-11-14T02:52:53;4.47;;;0.90;;
34200;SDS011;20469;55.638;37.670;2022-11-14T02:55:21;2.30;;;0.75;;
34200;SDS011;20469;55.638;37.670;2022-11-14T02:57:49;0.98;;;0.60;;
34200;SDS011;20469;55.638;37.670;2022-11-14T03:00:17;2.20;;;0.88;;
34200;SDS011;20469;55.638;37.670;2022-11-14T03:02:45;2.22;;;0.70;;
34200;SDS011;20469;55.638;37.670;2022-11-14T03:05:13;2.25;;;0.77;;
34200;SDS011;20469;55.638;37.670;2022-11-14T03:07:40;2.10;;;0.70;;
34200;SDS011;20469;55.638;37.670;2022-11-14T03:10:09;2.75;;;0.60;;
34200;SDS011;20469;55.638;37.670;2022-11-14T03:12:37;1.92;;;0.70;;
34200;SDS011;20469;55.638;37.670;2022-11-14T03:15:05;1.73;;;0.75;;
34200;SDS011;20469;55.638;37.670;2022-11-14T03:17:33;0.98;;;0.60;;
34200;SDS011;20469;55.638;37.670;2022-11-14T03:20:01;1.75;;;0.70;;
34200;SDS011;20469;55.638;37.670;2022-11-14T03:22:29;3.03;;;0.95;;
34200;SDS011;20469;55.638;37.670;2022-11-14T03:24:57;2.25;;;0.80;;
34200;SDS011;20469;55.638;37.670;2022-11-14T03:27:25;2.08;;;0.70;;
34200;SDS011;20469;55.638;37.670;2022-11-14T03:29:53;4.20;;;0.80;;
34200;SDS011;20469;55.638;37.670;2022-11-14T03:32:22;1.92;;;0.70;;
34200;SDS011;20469;55.638;37.670;2022-11-14T03:34:49;2.00;;;0.90;;
34200;SDS011;20469;55.638;37.670;2022-11-14T03:37:17;1.83;;;0.60;;
34200;SDS011;20469;55.638;37.670;2022-11-14T03:39:45;4.53;;;0.80;;
34200;SDS011;20469;55.638;37.670;2022-11-14T03:42:12;3.22;;;0.85;;
34200;SDS011;20469;55.638;37.670;2022-11-14T03:44:41;2.65;;;0.88;;
34200;SDS011;20469;55.638;37.670;2022-11-14T03:47:09;2.40;;;0.75;;
34200;SDS011;20469;55.638;37.670;2022-11-14T03:49:36;2.63;;;0.88;;
34200;SDS011;20469;55.638;37.670;2022-11-14T03:52:04;2.08;;;0.80;;
34200;SDS011;20469;55.638;37.670;2022-11-14T03:54:33;2.55;;;0.70;;
34200;SDS011;20469;55.638;37.670;2022-11-14T03:57:01;2.40;;;0.70;;
34200;SDS011;20469;55.638;37.670;2022-11-14T03:59:31;1.35;;;0.57;;
34200;SDS011;20469;55.638;37.670;2022-11-14T04:01:59;1.50;;;0.68;;
34200;SDS011;20469;55.638;37.670;2022-11-14T04:04:27;1.02;;;0.55;;
34200;SDS011;20469;55.638;37.670;2022-11-14T04:06:55;3.25;;;0.75;;
34200;SDS011;20469;55.638;37.670;2022-11-14T04:09:22;1.77;;;0.73;;
34200;SDS011;20469;55.638;37.670;2022-11-14T04:11:50;2.80;;;0.80;;
34200;SDS011;20469;55.638;37.670;2022-11-14T04:14:18;2.78;;;0.93;;
34200;SDS011;20469;55.638;37.670;2022-11-14T04:16:46;2.58;;;0.73;;
34200;SDS011;20469;55.638;37.670;2022-11-14T04:19:14;3.00;;;0.85;;
34200;SDS011;20469;55.638;37.670;2022-11-14T04:21:41;2.70;;;0.80;;
34200;SDS011;20469;55.638;37.670;2022-11-14T04:24:09;2.15;;;0.40;;
34200;SDS011;20469;55.638;37.670;2022-11-14T04:26:37;1.63;;;0.80;;
34200;SDS011;20469;55.638;37.670;2022-11-14T04:29:04;2.97;;;0.80;;
34200;SDS011;20469;55.638;37.670;2022-11-14T04:31:32;7.47;;;0.98;;
34200;SDS011;20469;55.638;37.670;2022-11-14T04:34:00;2.03;;;0.80;;
34200;SDS011;20469;55.638;37.670;2022-11-14T04:36:28;3.60;;;0.80;;
34200;SDS011;20469;55.638;37.670;2022-11-14T04:38:55;2.65;;;1.00;;
34200;SDS011;20469;55.638;37.670;2022-11-14T04:41:23;4.10;;;0.90;;
34200;SDS011;20469;55.638;37.670;2022-11-14T04:43:51;1.77;;;0.80;;
34200;SDS011;20469;55.638;37.670;2022-11-14T04:46:19;2.53;;;0.93;;
34200;SDS011;20469;55.638;37.670;2022-11-14T04:48:46;1.40;;;0.82;;
34200;SDS011;20469;55.638;37.670;2022-11-14T04:51:14;4.38;;;1.00;;
34200;SDS011;20469;55.638;37.670;2022-11-14T04:53:42;3.53;;;0.93;;
34200;SDS011;20469;55.638;37.670;2022-11-14T04:56:09;2.55;;;1.10;;
34200;SDS011;20469;55.638;37.670;2022-11-14T04:58:37;4.60;;;0.85;;
34200;SDS011;20469;55.638;37.670;2022-11-14T05:01:06;3.60;;;1.00;;
34200;SDS011;20469;55.638;37.670;2022-11-14T05:03:35;3.38;;;1.10;;
34200;SDS011;20469;55.638;37.670;2022-11-14T05:06:03;2.88;;;1.23;;
34200;SDS011;20469;55.638;37.670;2022-11-14T05:08:30;1.85;;;0.80;;
34200;SDS011;20469;55.638;37.670;2022-11-14T05:10:59;3.60;;;0.70;;
34200;SDS011;20469;55.638;37.670;2022-11-14T05:13:26;4.10;;;1.35;;
34200;SDS011;20469;55.638;37.670;2022-11-14T05:15:57;2.75;;;0.90;;
34200;SDS011;20469;55.638;37.670;2022-11-14T05:18:26;3.15;;;1.35;;
34200;SDS011;20469;55.638;37.670;2022-11-14T05:20:56;2.08;;;0.88;;
34200;SDS011;20469;55.638;37.670;2022-11-14T05:23:26;2.88;;;1.05;;
34200;SDS011;20469;55.638;37.670;2022-11-14T05:26:01;3.67;;;1.20;;
34200;SDS011;20469;55.638;37.670;2022-11-14T05:28:31;4.72;;;1.20;;
34200;SDS011;20469;55.638;37.670;2022-11-14T05:31:03;4.15;;;1.08;;
34200;SDS011;20469;55.638;37.670;2022-11-14T05:33:32;3.63;;;1.02;;
34200;SDS011;20469;55.638;37.670;2022-11-14T05:36:02;2.85;;;1.13;;
34200;SDS011;20469;55.638;37.670;2022-11-14T05:38:32;1.92;;;0.90;;
34200;SDS011;20469;55.638;37.670;2022-11-14T05:41:08;3.38;;;1.13;;
34200;SDS011;20469;55.638;37.670;2022-11-14T05:43:38;2.63;;;1.20;;
34200;SDS011;20469;55.638;37.670;2022-11-14T05:46:08;4.72;;;1.20;;
34200;SDS011;20469;55.638;37.670;2022-11-14T05:48:38;5.07;;;1.50;;
34200;SDS011;20469;55.638;37.670;2022-11-14T05:51:06;5.85;;;1.48;;
34200;SDS011;20469;55.638;37.670;2022-11-14T05:53:36;7.63;;;1.73;;
34200;SDS011;20469;55.638;37.670;2022-11-14T05:56:06;4.20;;;1.38;;
34200;SDS011;20469;55.638;37.670;2022-11-14T05:58:36;5.20;;;1.27;;
34200;SDS011;20469;55.638;37.670;2022-11-14T06:01:13;5.13;;;1.40;;
34200;SDS011;20469;55.638;37.670;2022-11-14T06:03:44;2.70;;;1.10;;
34200;SDS011;20469;55.638;37.670;2022-11-14T06:08:47;4.82;;;1.17;;
34200;SDS011;20469;55.638;37.670;2022-11-14T06:11:16;4.53;;;1.30;;
34200;SDS011;20469;55.638;37.670;2022-11-14T06:13:45;5.45;;;1.63;;
34200;SDS011;20469;55.638;37.670;2022-11-14T06:16:14;3.13;;;1.45;;
34200;SDS011;20469;55.638;37.670;2022-11-14T06:18:44;5.78;;;1.75;;
34200;SDS011;20469;55.638;37.670;2022-11-14T06:21:14;4.28;;;1.48;;
34200;SDS011;20469;55.638;37.670;2022-11-14T06:23:43;4.68;;;1.20;;
34200;SDS011;20469;55.638;37.670;2022-11-14T06:26:29;6.03;;;1.50;;
34200;SDS011;20469;55.638;37.670;2022-11-14T06:28:57;3.50;;;1.38;;
34200;SDS011;20469;55.638;37.670;2022-11-14T06:31:26;5.03;;;1.58;;
34200;SDS011;20469;55.638;37.670;2022-11-14T06:33:54;5.68;;;1.42;;
34200;SDS011;20469;55.638;37.670;2022-11-14T06:36:22;4.68;;;1.50;;
34200;SDS011;20469;55.638;37.670;2022-11-14T06:38:50;5.65;;;1.70;;
34200;SDS011;20469;55.638;37.670;2022-11-14T06:41:18;5.18;;;1.55;;
34200;SDS011;20469;55.638;37.670;2022-11-14T06:43:48;4.63;;;1.88;;
34200;SDS011;20469;55.638;37.670;2022-11-14T06:46:20;7.72;;;1.85;;
34200;SDS011;20469;55.638;37.670;2022-11-14T06:48:48;5.78;;;1.48;;
34200;SDS011;20469;55.638;37.670;2022-11-14T06:51:18;10.50;;;2.00;;
34200;SDS011;20469;55.638;37.670;2022-11-14T06:53:47;5.80;;;1.48;;
34200;SDS011;20469;55.638;37.670;2022-11-14T06:56:17;3.97;;;1.45;;
34200;SDS011;20469;55.638;37.670;2022-11-14T06:58:46;6.57;;;1.63;;
34200;SDS011;20469;55.638;37.670;2022-11-14T07:01:16;6.40;;;1.42;;
34200;SDS011;20469;55.638;37.670;2022-11-14T07:03:46;6.65;;;1.70;;
34200;SDS011;20469;55.638;37.670;2022-11-14T07:06:16;9.48;;;1.67;;
34200;SDS011;20469;55.638;37.670;2022-11-14T07:08:47;9.32;;;1.90;;
34200;SDS011;20469;55.638;37.670;2022-11-14T07:11:18;4.57;;;1.25;;
34200;SDS011;20469;55.638;37.670;2022-11-14T07:13:50;4.28;;;1.40;;
34200;SDS011;20469;55.638;37.670;2022-11-14T07:16:23;9.45;;;2.03;;
34200;SDS011;20469;55.638;37.670;2022-11-14T07:18:52;10.30;;;2.58;;
34200;SDS011;20469;55.638;37.670;2022-11-14T07:21:19;6.72;;;1.98;;
34200;SDS011;20469;55.638;37.670;2022-11-14T07:23:47;4.35;;;1.42;;
34200;SDS011;20469;55.638;37.670;2022-11-14T07:26:15;4.25;;;1.40;;
34200;SDS011;20469;55.638;37.670;2022-11-14T07:28:43;9.70;;;1.80;;
34200;SDS011;20469;55.638;37.670;2022-11-14T07:31:18;4.38;;;1.40;;
34200;SDS011;20469;55.638;37.670;2022-11-14T07:33:46;3.63;;;1.40;;
34200;SDS011;20469;55.638;37.670;2022-11-14T07:36:14;5.45;;;1.92;;
34200;SDS011;20469;55.638;37.670;2022-11-14T07:38:42;11.35;;;1.70;;
34200;SDS011;20469;55.638;37.670;2022-11-14T07:41:11;3.97;;;1.33;;
34200;SDS011;20469;55.638;37.670;2022-11-14T07:43:40;5.47;;;1.40;;
34200;SDS011;20469;55.638;37.670;2022-11-14T07:46:11;3.63;;;1.20;;
34200;SDS011;20469;55.638;37.670;2022-11-14T07:48:40;5.38;;;1.40;;
34200;SDS011;20469;55.638;37.670;2022-11-14T07:51:18;5.28;;;1.50;;
34200;SDS011;20469;55.638;37.670;2022-11-14T07:53:46;7.07;;;1.58;;
34200;SDS011;20469;55.638;37.670;2022-11-14T07:56:14;5.70;;;1.70;;
34200;SDS011;20469;55.638;37.670;2022-11-14T07:58:42;7.25;;;1.65;;
34200;SDS011;20469;55.638;37.670;2022-11-14T08:01:11;8.75;;;1.88;;
34200;SDS011;20469;55.638;37.670;2022-11-14T08:03:39;7.95;;;1.88;;
34200;SDS011;20469;55.638;37.670;2022-11-14T08:06:12;4.65;;;1.50;;
34200;SDS011;20469;55.638;37.670;2022-11-14T08:08:41;6.97;;;1.33;;
34200;SDS011;20469;55.638;37.670;2022-11-14T08:11:09;4.25;;;1.65;;
34200;SDS011;20469;55.638;37.670;2022-11-14T08:13:37;5.43;;;1.70;;
34200;SDS011;20469;55.638;37.670;2022-11-14T08:16:05;3.38;;;1.30;;
34200;SDS011;20469;55.638;37.670;2022-11-14T08:18:39;2.80;;;1.30;;
34200;SDS011;20469;55.638;37.670;2022-11-14T08:21:07;5.68;;;1.67;;
34200;SDS011;20469;55.638;37.670;2022-11-14T08:23:35;4.18;;;1.50;;
34200;SDS011;20469;55.638;37.670;2022-11-14T08:26:05;6.43;;;1.67;;
34200;SDS011;20469;55.638;37.670;2022-11-14T08:28:35;7.82;;;1.58;;
34200;SDS011;20469;55.638;37.670;2022-11-14T08:31:04;6.03;;;1.83;;
34200;SDS011;20469;55.638;37.670;2022-11-14T08:33:36;5.90;;;1.50;;
34200;SDS011;20469;55.638;37.670;2022-11-14T08:36:06;4.15;;;1.65;;
34200;SDS011;20469;55.638;37.670;2022-11-14T08:38:38;7.35;;;1.73;;
34200;SDS011;20469;55.638;37.670;2022-11-14T08:41:07;6.03;;;1.70;;
34200;SDS011;20469;55.638;37.670;2022-11-14T08:43:35;3.33;;;1.60;;
34200;SDS011;20469;55.638;37.670;2022-11-14T08:46:04;9.05;;;1.67;;
34200;SDS011;20469;55.638;37.670;2022-11-14T08:48:32;9.60;;;1.90;;
34200;SDS011;20469;55.638;37.670;2022-11-14T08:51:01;4.85;;;1.50;;
34200;SDS011;20469;55.638;37.670;2022-11-14T08:53:32;7.15;;;2.00;;
34200;SDS011;20469;55.638;37.670;2022-11-14T08:56:01;8.48;;;1.70;;
34200;SDS011;20469;55.638;37.670;2022-11-14T08:58:29;3.30;;;1.45;;
34200;SDS011;20469;55.638;37.670;2022-11-14T09:01:03;7.38;;;1.50;;
34200;SDS011;20469;55.638;37.670;2022-11-14T09:03:32;5.68;;;1.75;;
34200;SDS011;20469;55.638;37.670;2022-11-14T09:06:00;5.72;;;1.70;;
34200;SDS011;20469;55.638;37.670;2022-11-14T09:08:28;4.95;;;1.50;;
34200;SDS011;20469;55.638;37.670;2022-11-14T09:10:58;3.90;;;1.40;;
34200;SDS011;20469;55.638;37.670;2022-11-14T09:13:32;4.32;;;1.33;;
34200;SDS011;20469;55.638;37.670;2022-11-14T09:16:00;6.07;;;1.50;;
34200;SDS011;20469;55.638;37.670;2022-11-14T09:18:29;6.45;;;1.80;;
34200;SDS011;20469;55.638;37.670;2022-11-14T09:20:59;3.42;;;1.52;;
34200;SDS011;20469;55.638;37.670;2022-11-14T09:23:28;8.05;;;2.20;;
34200;SDS011;20469;55.638;37.670;2022-11-14T09:25:57;8.02;;;1.63;;
34200;SDS011;20469;55.638;37.670;2022-11-14T09:28:25;7.45;;;1.70;;
34200;SDS011;20469;55.638;37.670;2022-11-14T09:30:58;7.03;;;1.73;;
34200;SDS011;20469;55.638;37.670;2022-11-14T09:33:34;3.08;;;1.58;;
34200;SDS011;20469;55.638;37.670;2022-11-14T09:36:03;6.18;;;1.98;;
34200;SDS011;20469;55.638;37.670;2022-11-14T09:38:33;6.63;;;1.35;;
34200;SDS011;20469;55.638;37.670;2022-11-14T09:41:23;5.03;;;1.70;;
34200;SDS011;20469;55.638;37.670;2022-11-14T09:46:53;7.05;;;1.60;;
34200;SDS011;20469;55.638;37.670;2022-11-14T09:49:28;7.03;;;1.60;;
34200;SDS011;20469;55.638;37.670;2022-11-14T09:55:08;2.75;;;1.40;;
34200;SDS011;20469;55.638;37.670;2022-11-14T09:57:45;9.43;;;1.88;;
34200;SDS011;20469;55.638;37.670;2022-11-14T10:00:15;7.32;;;1.90;;
34200;SDS011;20469;55.638;37.670;2022-11-14T10:02:51;4.60;;;2.10;;
34200;SDS011;20469;55.638;37.670;2022-11-14T10:05:47;7.20;;;1.73;;
34200;SDS011;20469;55.638;37.670;2022-11-14T10:08:36;5.00;;;1.50;;
34200;SDS011;20469;55.638;37.670;2022-11-14T10:11:29;7.30;;;2.03;;
34200;SDS011;20469;55.638;37.670;2022-11-14T10:14:07;6.80;;;1.52;;
34200;SDS011;20469;55.638;37.670;2022-11-14T10:19:52;8.38;;;1.92;;
34200;SDS011;20469;55.638;37.670;2022-11-14T10:22:39;7.53;;;2.03;;
34200;SDS011;20469;55.638;37.670;2022-11-14T10:25:25;7.75;;;1.80;;
34200;SDS011;20469;55.638;37.670;2022-11-14T10:31:06;8.65;;;1.88;;
34200;SDS011;20469;55.638;37.670;2022-11-14T10:33:56;5.03;;;1.85;;
34200;SDS011;20469;55.638;37.670;2022-11-14T10:36:51;8.07;;;1.90;;
34200;SDS011;20469;55.638;37.670;2022-11-14T10:42:31;7.60;;;1.65;;
34200;SDS011;20469;55.638;37.670;2022-11-14T10:45:05;4.75;;;1.70;;
34200;SDS011;20469;55.638;37.670;2022-11-14T10:47:49;10.45;;;2.25;;
34200;SDS011;20469;55.638;37.670;2022-11-14T10:50:24;6.57;;;2.38;;
34200;SDS011;20469;55.638;37.670;2022-11-14T10:53:12;9.52;;;2.88;;
34200;SDS011;20469;55.638;37.670;2022-11-14T10:55:48;6.82;;;2.05;;
34200;SDS011;20469;55.638;37.670;2022-11-14T10:58:32;5.18;;;1.83;;
34200;SDS011;20469;55.638;37.670;2022-11-14T11:04:10;7.82;;;1.65;;
34200;SDS011;20469;55.638;37.670;2022-11-14T11:06:44;5.40;;;1.95;;
34200;SDS011;20469;55.638;37.670;2022-11-14T11:09:14;3.60;;;1.75;;
34200;SDS011;20469;55.638;37.670;2022-11-14T11:11:59;6.57;;;1.80;;
34200;SDS011;20469;55.638;37.670;2022-11-14T11:14:28;8.77;;;1.92;;
34200;SDS011;20469;55.638;37.670;2022-11-14T11:17:06;6.63;;;1.80;;
34200;SDS011;20469;55.638;37.670;2022-11-14T11:19:41;6.60;;;1.88;;
34200;SDS011;20469;55.638;37.670;2022-11-14T11:24:55;4.22;;;1.70;;
34200;SDS011;20469;55.638;37.670;2022-11-14T11:27:24;5.80;;;2.05;;
34200;SDS011;20469;55.638;37.670;2022-11-14T11:30:00;51.63;;;14.48;;
34200;SDS011;20469;55.638;37.670;2022-11-14T11:32:34;10.30;;;2.97;;
34200;SDS011;20469;55.638;37.670;2022-11-14T11:35:02;6.20;;;2.17;;
34200;SDS011;20469;55.638;37.670;2022-11-14T11:37:40;58.92;;;19.67;;
34200;SDS011;20469;55.638;37.670;2022-11-14T11:40:13;50.78;;;16.00;;
34200;SDS011;20469;55.638;37.670;2022-11-14T11:42:47;85.60;;;26.55;;
34200;SDS011;20469;55.638;37.670;2022-11-14T11:45:44;157.88;;;50.08;;
34200;SDS011;20469;55.638;37.670;2022-11-14T11:48:16;178.77;;;56.72;;
34200;SDS011;20469;55.638;37.670;2022-11-14T11:50:46;8.23;;;2.97;;
34200;SDS011;20469;55.638;37.670;2022-11-14T11:53:16;11.07;;;3.70;;
34200;SDS011;20469;55.638;37.670;2022-11-14T11:55:52;36.88;;;11.80;;
34200;SDS011;20469;55.638;37.670;2022-11-14T11:58:28;25.45;;;8.30;;
34200;SDS011;20469;55.638;37.670;2022-11-14T12:01:10;18.23;;;6.10;;
34200;SDS011;20469;55.638;37.670;2022-11-14T12:03:38;8.70;;;2.45;;
34200;SDS011;20469;55.638;37.670;2022-11-14T12:06:14;10.73;;;3.75;;
34200;SDS011;20469;55.638;37.670;2022-11-14T12:09:01;16.75;;;5.13;;
34200;SDS011;20469;55.638;37.670;2022-11-14T12:11:47;8.40;;;2.08;;
34200;SDS011;20469;55.638;37.670;2022-11-14T12:17:26;8.45;;;2.88;;
34200;SDS011;20469;55.638;37.670;2022-11-14T12:20:18;4.20;;;1.88;;
34200;SDS011;20469;55.638;37.670;2022-11-14T12:23:18;6.72;;;2.00;;
34200;SDS011;20469;55.638;37.670;2022-11-14T12:29:03;5.17;;;1.40;;
34200;SDS011;20469;55.638;37.670;2022-11-14T12:31:55;5.95;;;1.75;;
34200;SDS011;20469;55.638;37.670;2022-11-14T12:34:30;5.28;;;1.73;;
34200;SDS011;20469;55.638;37.670;2022-11-14T12:37:06;6.20;;;1.90;;
34200;SDS011;20469;55.638;37.670;2022-11-14T12:39:39;6.07;;;1.55;;
34200;SDS011;20469;55.638;37.670;2022-11-14T12:42:11;8.63;;;1.92;;
34200;SDS011;20469;55.638;37.670;2022-11-14T12:44:45;5.35;;;1.75;;
34200;SDS011;20469;55.638;37.670;2022-11-14T12:47:17;6.40;;;1.50;;
34200;SDS011;20469;55.638;37.670;2022-11-14T12:49:58;3.80;;;1.70;;
34200;SDS011;20469;55.638;37.670;2022-11-14T12:58:27;4.82;;;1.77;;
34200;SDS011;20469;55.638;37.670;2022-11-14T13:01:18;5.35;;;1.95;;
34200;SDS011;20469;55.638;37.670;2022-11-14T13:04:03;6.47;;;2.05;;
34200;SDS011;20469;55.638;37.670;2022-11-14T13:12:56;5.53;;;1.70;;
34200;SDS011;20469;55.638;37.670;2022-11-14T13:15:52;4.15;;;1.20;;
34200;SDS011;20469;55.638;37.670;2022-11-14T13:27:42;7.57;;;1.67;;
34200;SDS011;20469;55.638;37.670;2022-11-14T13:33:39;4.53;;;1.40;;
34200;SDS011;20469;55.638;37.670;2022-11-14T13:36:10;4.50;;;1.50;;
34200;SDS011;20469;55.638;37.670;2022-11-14T13:39:34;8.82;;;1.70;;
34200;SDS011;20469;55.638;37.670;2022-11-14T13:42:04;5.72;;;1.50;;
34200;SDS011;20469;55.638;37.670;2022-11-14T13:47:42;5.38;;;1.80;;
34200;SDS011;20469;55.638;37.670;2022-11-14T13:50:27;4.78;;;1.13;;
34200;SDS011;20469;55.638;37.670;2022-11-14T13:52:57;6.75;;;1.58;;
34200;SDS011;20469;55.638;37.670;2022-11-14T13:55:37;5.20;;;1.38;;
34200;SDS011;20469;55.638;37.670;2022-11-14T13:58:30;6.70;;;1.70;;
34200;SDS011;20469;55.638;37.670;2022-11-14T14:03:57;6.95;;;1.33;;
34200;SDS011;20469;55.638;37.670;2022-11-14T14:06:47;3.30;;;0.93;;
34200;SDS011;20469;55.638;37.670;2022-11-14T14:09:45;3.67;;;1.40;;
34200;SDS011;20469;55.638;37.670;2022-11-14T14:18:16;6.60;;;1.48;;
34200;SDS011;20469;55.638;37.670;2022-11-14T14:21:02;6.43;;;1.27;;
34200;SDS011;20469;55.638;37.670;2022-11-14T14:23:45;7.30;;;1.73;;
34200;SDS011;20469;55.638;37.670;2022-11-14T14:29:25;4.40;;;1.70;;
34200;SDS011;20469;55.638;37.670;2022-11-14T14:32:09;4.72;;;1.50;;
34200;SDS011;20469;55.638;37.670;2022-11-14T14:34:39;11.88;;;1.50;;
34200;SDS011;20469;55.638;37.670;2022-11-14T14:37:15;6.82;;;1.60;;
34200;SDS011;20469;55.638;37.670;2022-11-14T14:42:38;5.40;;;1.55;;
34200;SDS011;20469;55.638;37.670;2022-11-14T14:45:15;8.27;;;1.80;;
34200;SDS011;20469;55.638;37.670;2022-11-14T14:47:45;4.18;;;1.60;;
34200;SDS011;20469;55.638;37.670;2022-11-14T14:50:26;3.60;;;1.30;;
34200;SDS011;20469;55.638;37.670;2022-11-14T14:53:01;7.05;;;1.60;;
34200;SDS011;20469;55.638;37.670;2022-11-14T14:55:33;9.20;;;1.73;;
34200;SDS011;20469;55.638;37.670;2022-11-14T15:01:01;6.07;;;1.30;;
34200;SDS011;20469;55.638;37.670;2022-11-14T15:03:35;5.82;;;1.35;;
34200;SDS011;20469;55.638;37.670;2022-11-14T15:06:16;7.22;;;1.98;;
34200;SDS011;20469;55.638;37.670;2022-11-14T15:08:56;4.25;;;1.38;;
34200;SDS011;20469;55.638;37.670;2022-11-14T15:11:26;6.03;;;1.35;;
34200;SDS011;20469;55.638;37.670;2022-11-14T15:13:58;6.85;;;1.50;;
34200;SDS011;20469;55.638;37.670;2022-11-14T15:16:27;6.55;;;1.38;;
34200;SDS011;20469;55.638;37.670;2022-11-14T15:18:56;9.98;;;1.95;;
34200;SDS011;20469;55.638;37.670;2022-11-14T15:21:28;5.60;;;1.77;;
34200;SDS011;20469;55.638;37.670;2022-11-14T15:23:58;5.68;;;1.58;;
34200;SDS011;20469;55.638;37.670;2022-11-14T15:26:30;4.55;;;1.60;;
34200;SDS011;20469;55.638;37.670;2022-11-14T15:31:46;9.10;;;1.83;;
34200;SDS011;20469;55.638;37.670;2022-11-14T15:34:22;5.18;;;1.50;;
34200;SDS011;20469;55.638;37.670;2022-11-14T15:39:48;5.93;;;1.92;;
34200;SDS011;20469;55.638;37.670;2022-11-14T15:42:25;5.05;;;1.52;;
34200;SDS011;20469;55.638;37.670;2022-11-14T15:44:54;8.75;;;1.80;;
34200;SDS011;20469;55.638;37.670;2022-11-14T15:47:27;5.70;;;1.67;;
34200;SDS011;20469;55.638;37.670;2022-11-14T15:49:57;5.80;;;1.05;;
34200;SDS011;20469;55.638;37.670;2022-11-14T15:52:31;4.32;;;1.35;;
34200;SDS011;20469;55.638;37.670;2022-11-14T15:55:03;3.97;;;1.30;;
34200;SDS011;20469;55.638;37.670;2022-11-14T15:57:43;5.45;;;1.75;;
34200;SDS011;20469;55.638;37.670;2022-11-14T16:00:31;4.05;;;1.30;;
34200;SDS011;20469;55.638;37.670;2022-11-14T16:02:59;3.88;;;1.17;;
34200;SDS011;20469;55.638;37.670;2022-11-14T16:05:27;5.45;;;1.20;;
34200;SDS011;20469;55.638;37.670;2022-11-14T16:07:59;5.45;;;1.00;;
34200;SDS011;20469;55.638;37.670;2022-11-14T16:10:26;4.28;;;1.15;;
34200;SDS011;20469;55.638;37.670;2022-11-14T16:12:54;4.43;;;1.35;;
34200;SDS011;20469;55.638;37.670;2022-11-14T16:15:22;3.65;;;1.30;;
34200;SDS011;20469;55.638;37.670;2022-11-14T16:17:50;3.00;;;1.20;;
34200;SDS011;20469;55.638;37.670;2022-11-14T16:20:19;7.15;;;1.67;;
34200;SDS011;20469;55.638;37.670;2022-11-14T16:22:50;5.57;;;1.35;;
34200;SDS011;20469;55.638;37.670;2022-11-14T16:25:20;6.07;;;1.85;;
34200;SDS011;20469;55.638;37.670;2022-11-14T16:27:49;4.80;;;1.15;;